sensor_id;sensor_type;location;lat;lon;timestamp;temperature;humidity
10415;DHT22;5254;47.696;9.138;2022-07-06T00:01:32;17.00;80.00
10415;DHT22;5254;47.696;9.138;2022-07-06T00:03:58;17.00;80.10
10415;DHT22;5254;47.696;9.138;2022-07-06T00:06:24;16.90;80.10
10415;DHT22;5254;47.696;9.138;2022-07-06T00:08:50;16.90;80.10
10415;DHT22;5254;47.696;9.138;2022-07-06T00:11:16;16.80;80.10
10415;DHT22;5254;47.696;9.138;2022-07-06T00:13:41;16.70;80.30
10415;DHT22;5254;47.696;9.138;2022-07-06T00:16:07;16.70;80.60
10415;DHT22;5254;47.696;9.138;2022-07-06T00:18:33;16.70;80.80
10415;DHT22;5254;47.696;9.138;2022-07-06T00:20:59;16.70;80.90
10415;DHT22;5254;47.696;9.138;2022-07-06T00:23:25;16.60;80.80
10415;DHT22;5254;47.696;9.138;2022-07-06T00:25:50;16.50;80.70
10415;DHT22;5254;47.696;9.138;2022-07-06T00:28:16;16.50;80.90
10415;DHT22;5254;47.696;9.138;2022-07-06T00:30:42;16.40;80.70
10415;DHT22;5254;47.696;9.138;2022-07-06T00:33:07;16.30;80.90
10415;DHT22;5254;47.696;9.138;2022-07-06T00:35:33;16.30;81.10
10415;DHT22;5254;47.696;9.138;2022-07-06T00:37:59;16.30;81.40
10415;DHT22;5254;47.696;9.138;2022-07-06T00:40:25;16.30;81.50
10415;DHT22;5254;47.696;9.138;2022-07-06T00:42:51;16.30;81.60
10415;DHT22;5254;47.696;9.138;2022-07-06T00:45:18;16.30;81.60
10415;DHT22;5254;47.696;9.138;2022-07-06T00:47:44;16.20;81.60
10415;DHT22;5254;47.696;9.138;2022-07-06T00:50:12;16.20;81.90
10415;DHT22;5254;47.696;9.138;2022-07-06T00:55:15;16.10;82.10
10415;DHT22;5254;47.696;9.138;2022-07-06T00:57:41;16.20;82.50
10415;DHT22;5254;47.696;9.138;2022-07-06T01:00:09;16.20;82.50
10415;DHT22;5254;47.696;9.138;2022-07-06T01:02:36;16.20;82.70
10415;DHT22;5254;47.696;9.138;2022-07-06T01:05:06;16.10;82.60
10415;DHT22;5254;47.696;9.138;2022-07-06T01:07:32;16.20;82.90
10415;DHT22;5254;47.696;9.138;2022-07-06T01:09:58;16.20;82.90
10415;DHT22;5254;47.696;9.138;2022-07-06T01:12:25;16.10;82.90
10415;DHT22;5254;47.696;9.138;2022-07-06T01:14:51;16.10;82.90
10415;DHT22;5254;47.696;9.138;2022-07-06T01:17:17;16.10;83.10
10415;DHT22;5254;47.696;9.138;2022-07-06T01:19:44;16.10;83.20
10415;DHT22;5254;47.696;9.138;2022-07-06T01:22:10;16.10;83.30
10415;DHT22;5254;47.696;9.138;2022-07-06T01:24:36;16.10;83.40
10415;DHT22;5254;47.696;9.138;2022-07-06T01:27:04;16.10;83.50
10415;DHT22;5254;47.696;9.138;2022-07-06T01:29:30;16.00;83.40
10415;DHT22;5254;47.696;9.138;2022-07-06T01:31:56;16.00;83.50
10415;DHT22;5254;47.696;9.138;2022-07-06T01:34:22;16.00;83.60
10415;DHT22;5254;47.696;9.138;2022-07-06T01:36:48;16.00;83.70
10415;DHT22;5254;47.696;9.138;2022-07-06T01:39:13;16.00;83.80
10415;DHT22;5254;47.696;9.138;2022-07-06T01:41:39;16.00;84.00
10415;DHT22;5254;47.696;9.138;2022-07-06T01:44:05;16.00;84.10
10415;DHT22;5254;47.696;9.138;2022-07-06T01:46:31;16.00;84.20
10415;DHT22;5254;47.696;9.138;2022-07-06T01:48:57;16.10;84.40
10415;DHT22;5254;47.696;9.138;2022-07-06T01:51:23;16.10;84.40
10415;DHT22;5254;47.696;9.138;2022-07-06T01:53:50;16.10;84.40
10415;DHT22;5254;47.696;9.138;2022-07-06T01:56:16;16.10;84.40
10415;DHT22;5254;47.696;9.138;2022-07-06T01:58:44;16.10;84.40
10415;DHT22;5254;47.696;9.138;2022-07-06T02:01:12;16.10;84.40
10415;DHT22;5254;47.696;9.138;2022-07-06T02:03:38;16.00;84.30
10415;DHT22;5254;47.696;9.138;2022-07-06T02:06:05;16.00;84.30
10415;DHT22;5254;47.696;9.138;2022-07-06T02:08:32;15.90;84.20
10415;DHT22;5254;47.696;9.138;2022-07-06T02:10:58;15.90;84.20
10415;DHT22;5254;47.696;9.138;2022-07-06T02:13:24;15.90;84.20
10415;DHT22;5254;47.696;9.138;2022-07-06T02:15:50;15.80;84.10
10415;DHT22;5254;47.696;9.138;2022-07-06T02:18:16;15.80;84.10
10415;DHT22;5254;47.696;9.138;2022-07-06T02:20:42;15.80;84.20
10415;DHT22;5254;47.696;9.138;2022-07-06T02:23:07;15.70;84.10
10415;DHT22;5254;47.696;9.138;2022-07-06T02:25:33;15.70;84.30
10415;DHT22;5254;47.696;9.138;2022-07-06T02:27:59;15.60;84.10
10415;DHT22;5254;47.696;9.138;2022-07-06T02:30:24;15.60;84.70
10415;DHT22;5254;47.696;9.138;2022-07-06T02:32:50;15.50;84.00
10415;DHT22;5254;47.696;9.138;2022-07-06T02:35:16;15.50;84.10
10415;DHT22;5254;47.696;9.138;2022-07-06T02:37:42;15.40;84.00
10415;DHT22;5254;47.696;9.138;2022-07-06T02:40:08;15.40;84.00
10415;DHT22;5254;47.696;9.138;2022-07-06T02:42:34;15.30;84.00
10415;DHT22;5254;47.696;9.138;2022-07-06T02:45:00;15.20;83.80
10415;DHT22;5254;47.696;9.138;2022-07-06T02:47:25;15.20;84.00
10415;DHT22;5254;47.696;9.138;2022-07-06T02:49:51;15.20;84.10
10415;DHT22;5254;47.696;9.138;2022-07-06T02:52:18;15.10;84.00
10415;DHT22;5254;47.696;9.138;2022-07-06T02:54:44;15.10;84.10
10415;DHT22;5254;47.696;9.138;2022-07-06T02:57:09;15.10;84.10
10415;DHT22;5254;47.696;9.138;2022-07-06T02:59:35;15.00;84.10
10415;DHT22;5254;47.696;9.138;2022-07-06T03:02:05;15.00;84.20
10415;DHT22;5254;47.696;9.138;2022-07-06T03:04:31;15.00;84.30
10415;DHT22;5254;47.696;9.138;2022-07-06T03:06:57;15.00;84.40
10415;DHT22;5254;47.696;9.138;2022-07-06T03:09:23;14.90;84.30
10415;DHT22;5254;47.696;9.138;2022-07-06T03:11:49;14.90;84.50
10415;DHT22;5254;47.696;9.138;2022-07-06T03:14:14;14.90;84.60
10415;DHT22;5254;47.696;9.138;2022-07-06T03:16:40;14.90;84.60
10415;DHT22;5254;47.696;9.138;2022-07-06T03:19:06;14.80;84.60
10415;DHT22;5254;47.696;9.138;2022-07-06T03:21:32;14.80;84.60
10415;DHT22;5254;47.696;9.138;2022-07-06T03:23:57;14.80;84.60
10415;DHT22;5254;47.696;9.138;2022-07-06T03:26:23;14.70;84.60
10415;DHT22;5254;47.696;9.138;2022-07-06T03:28:49;14.70;84.60
10415;DHT22;5254;47.696;9.138;2022-07-06T03:31:14;14.60;84.50
10415;DHT22;5254;47.696;9.138;2022-07-06T03:33:40;14.60;84.60
10415;DHT22;5254;47.696;9.138;2022-07-06T03:36:06;14.60;84.70
10415;DHT22;5254;47.696;9.138;2022-07-06T03:38:33;14.50;84.70
10415;DHT22;5254;47.696;9.138;2022-07-06T03:40:59;14.50;84.70
10415;DHT22;5254;47.696;9.138;2022-07-06T03:43:24;14.50;84.80
10415;DHT22;5254;47.696;9.138;2022-07-06T03:45:50;14.50;84.90
10415;DHT22;5254;47.696;9.138;2022-07-06T03:48:16;14.50;84.90
10415;DHT22;5254;47.696;9.138;2022-07-06T03:50:42;14.50;85.00
10415;DHT22;5254;47.696;9.138;2022-07-06T03:53:07;14.40;84.90
10415;DHT22;5254;47.696;9.138;2022-07-06T03:55:33;14.40;85.00
10415;DHT22;5254;47.696;9.138;2022-07-06T03:57:58;14.30;84.80
10415;DHT22;5254;47.696;9.138;2022-07-06T04:00:24;14.30;85.00
10415;DHT22;5254;47.696;9.138;2022-07-06T04:02:50;14.30;85.10
10415;DHT22;5254;47.696;9.138;2022-07-06T04:05:15;14.30;85.20
10415;DHT22;5254;47.696;9.138;2022-07-06T04:07:46;14.20;85.10
10415;DHT22;5254;47.696;9.138;2022-07-06T04:10:12;14.20;85.20
10415;DHT22;5254;47.696;9.138;2022-07-06T04:12:42;14.20;85.30
10415;DHT22;5254;47.696;9.138;2022-07-06T04:15:08;14.20;85.50
10415;DHT22;5254;47.696;9.138;2022-07-06T04:17:34;14.20;85.60
10415;DHT22;5254;47.696;9.138;2022-07-06T04:20:19;14.20;85.80
10415;DHT22;5254;47.696;9.138;2022-07-06T04:22:45;14.20;85.90
10415;DHT22;5254;47.696;9.138;2022-07-06T04:25:11;14.20;86.00
10415;DHT22;5254;47.696;9.138;2022-07-06T04:27:36;14.20;86.10
10415;DHT22;5254;47.696;9.138;2022-07-06T04:30:03;14.30;86.40
10415;DHT22;5254;47.696;9.138;2022-07-06T04:32:29;14.30;86.50
10415;DHT22;5254;47.696;9.138;2022-07-06T04:34:55;14.30;86.60
10415;DHT22;5254;47.696;9.138;2022-07-06T04:37:21;14.40;86.90
10415;DHT22;5254;47.696;9.138;2022-07-06T04:39:46;14.40;86.90
10415;DHT22;5254;47.696;9.138;2022-07-06T04:42:12;14.50;87.10
10415;DHT22;5254;47.696;9.138;2022-07-06T04:44:38;14.50;87.20
10415;DHT22;5254;47.696;9.138;2022-07-06T04:47:03;14.50;87.30
10415;DHT22;5254;47.696;9.138;2022-07-06T04:49:29;14.60;87.60
10415;DHT22;5254;47.696;9.138;2022-07-06T04:51:55;14.60;87.80
10415;DHT22;5254;47.696;9.138;2022-07-06T04:54:20;14.70;88.00
10415;DHT22;5254;47.696;9.138;2022-07-06T04:56:46;14.70;88.20
10415;DHT22;5254;47.696;9.138;2022-07-06T04:59:12;14.80;88.40
10415;DHT22;5254;47.696;9.138;2022-07-06T05:01:38;14.90;88.70
10415;DHT22;5254;47.696;9.138;2022-07-06T05:04:04;14.90;88.90
10415;DHT22;5254;47.696;9.138;2022-07-06T05:06:30;15.00;89.00
10415;DHT22;5254;47.696;9.138;2022-07-06T05:08:55;15.20;89.50
10415;DHT22;5254;47.696;9.138;2022-07-06T05:11:22;15.30;89.80
10415;DHT22;5254;47.696;9.138;2022-07-06T05:13:48;15.40;90.00
10415;DHT22;5254;47.696;9.138;2022-07-06T05:16:13;15.50;90.00
10415;DHT22;5254;47.696;9.138;2022-07-06T05:18:39;15.60;90.10
10415;DHT22;5254;47.696;9.138;2022-07-06T05:21:05;15.70;90.20
10415;DHT22;5254;47.696;9.138;2022-07-06T05:23:30;15.90;90.40
10415;DHT22;5254;47.696;9.138;2022-07-06T05:25:56;16.00;90.40
10415;DHT22;5254;47.696;9.138;2022-07-06T05:28:22;16.10;90.50
10415;DHT22;5254;47.696;9.138;2022-07-06T05:30:47;16.20;90.50
10415;DHT22;5254;47.696;9.138;2022-07-06T05:33:13;16.30;90.60
10415;DHT22;5254;47.696;9.138;2022-07-06T05:35:39;16.50;90.60
10415;DHT22;5254;47.696;9.138;2022-07-06T05:38:04;16.60;90.90
10415;DHT22;5254;47.696;9.138;2022-07-06T05:40:30;16.70;90.60
10415;DHT22;5254;47.696;9.138;2022-07-06T05:42:56;16.90;90.70
10415;DHT22;5254;47.696;9.138;2022-07-06T05:45:22;17.00;90.60
10415;DHT22;5254;47.696;9.138;2022-07-06T05:47:48;17.10;90.60
10415;DHT22;5254;47.696;9.138;2022-07-06T05:50:33;17.30;90.60
10415;DHT22;5254;47.696;9.138;2022-07-06T05:53:00;17.40;90.50
10415;DHT22;5254;47.696;9.138;2022-07-06T05:55:26;17.50;90.40
10415;DHT22;5254;47.696;9.138;2022-07-06T05:57:53;17.70;90.40
10415;DHT22;5254;47.696;9.138;2022-07-06T06:00:25;17.80;90.30
10415;DHT22;5254;47.696;9.138;2022-07-06T06:02:51;18.00;90.20
10415;DHT22;5254;47.696;9.138;2022-07-06T06:05:18;18.20;90.20
10415;DHT22;5254;47.696;9.138;2022-07-06T06:07:44;18.30;90.00
10415;DHT22;5254;47.696;9.138;2022-07-06T06:10:13;18.50;90.00
10415;DHT22;5254;47.696;9.138;2022-07-06T06:12:39;18.60;89.70
10415;DHT22;5254;47.696;9.138;2022-07-06T06:15:06;18.70;89.20
10415;DHT22;5254;47.696;9.138;2022-07-06T06:17:32;18.90;89.10
10415;DHT22;5254;47.696;9.138;2022-07-06T06:19:59;19.00;88.50
10415;DHT22;5254;47.696;9.138;2022-07-06T06:22:25;19.10;88.10
10415;DHT22;5254;47.696;9.138;2022-07-06T06:24:51;19.20;87.50
10415;DHT22;5254;47.696;9.138;2022-07-06T06:27:17;19.30;87.10
10415;DHT22;5254;47.696;9.138;2022-07-06T06:29:43;19.40;86.50
10415;DHT22;5254;47.696;9.138;2022-07-06T06:32:13;19.50;86.40
10415;DHT22;5254;47.696;9.138;2022-07-06T06:34:39;19.60;86.00
10415;DHT22;5254;47.696;9.138;2022-07-06T06:37:05;19.70;85.60
10415;DHT22;5254;47.696;9.138;2022-07-06T06:39:31;19.80;85.30
10415;DHT22;5254;47.696;9.138;2022-07-06T06:41:57;20.00;85.10
10415;DHT22;5254;47.696;9.138;2022-07-06T06:44:23;20.00;84.40
10415;DHT22;5254;47.696;9.138;2022-07-06T06:46:50;20.20;84.50
10415;DHT22;5254;47.696;9.138;2022-07-06T06:49:16;20.30;84.10
10415;DHT22;5254;47.696;9.138;2022-07-06T06:51:42;20.40;83.40
10415;DHT22;5254;47.696;9.138;2022-07-06T06:54:08;20.50;83.30
10415;DHT22;5254;47.696;9.138;2022-07-06T06:56:33;20.50;83.00
10415;DHT22;5254;47.696;9.138;2022-07-06T06:58:59;20.60;82.50
10415;DHT22;5254;47.696;9.138;2022-07-06T07:01:26;20.70;82.40
10415;DHT22;5254;47.696;9.138;2022-07-06T07:03:52;20.80;82.40
10415;DHT22;5254;47.696;9.138;2022-07-06T07:06:18;21.00;82.20
10415;DHT22;5254;47.696;9.138;2022-07-06T07:08:43;21.10;82.00
10415;DHT22;5254;47.696;9.138;2022-07-06T07:11:09;21.20;81.30
10415;DHT22;5254;47.696;9.138;2022-07-06T07:13:35;21.20;80.90
10415;DHT22;5254;47.696;9.138;2022-07-06T07:16:01;21.20;80.70
10415;DHT22;5254;47.696;9.138;2022-07-06T07:18:26;21.30;80.30
10415;DHT22;5254;47.696;9.138;2022-07-06T07:20:52;21.30;80.10
10415;DHT22;5254;47.696;9.138;2022-07-06T07:23:18;21.40;79.80
10415;DHT22;5254;47.696;9.138;2022-07-06T07:25:44;21.40;79.60
10415;DHT22;5254;47.696;9.138;2022-07-06T07:28:09;21.50;79.60
10415;DHT22;5254;47.696;9.138;2022-07-06T07:30:35;21.50;79.30
10415;DHT22;5254;47.696;9.138;2022-07-06T07:33:01;21.60;79.20
10415;DHT22;5254;47.696;9.138;2022-07-06T07:35:27;21.70;78.80
10415;DHT22;5254;47.696;9.138;2022-07-06T07:37:53;21.70;78.50
10415;DHT22;5254;47.696;9.138;2022-07-06T07:40:19;21.70;77.70
10415;DHT22;5254;47.696;9.138;2022-07-06T07:42:45;21.60;77.20
10415;DHT22;5254;47.696;9.138;2022-07-06T07:45:11;21.60;77.30
10415;DHT22;5254;47.696;9.138;2022-07-06T07:47:38;21.70;77.30
10415;DHT22;5254;47.696;9.138;2022-07-06T07:50:04;21.80;77.00
10415;DHT22;5254;47.696;9.138;2022-07-06T07:52:30;21.80;77.40
10415;DHT22;5254;47.696;9.138;2022-07-06T07:54:56;21.90;76.80
10415;DHT22;5254;47.696;9.138;2022-07-06T07:57:22;22.00;76.90
10415;DHT22;5254;47.696;9.138;2022-07-06T07:59:48;22.00;76.70
10415;DHT22;5254;47.696;9.138;2022-07-06T08:02:14;22.10;76.80
10415;DHT22;5254;47.696;9.138;2022-07-06T08:04:40;22.20;76.80
10415;DHT22;5254;47.696;9.138;2022-07-06T08:07:06;22.30;76.70
10415;DHT22;5254;47.696;9.138;2022-07-06T08:09:32;22.40;76.70
10415;DHT22;5254;47.696;9.138;2022-07-06T08:11:58;22.50;76.70
10415;DHT22;5254;47.696;9.138;2022-07-06T08:14:24;22.60;76.40
10415;DHT22;5254;47.696;9.138;2022-07-06T08:16:51;22.60;75.90
10415;DHT22;5254;47.696;9.138;2022-07-06T08:19:16;22.60;75.80
10415;DHT22;5254;47.696;9.138;2022-07-06T08:21:42;22.60;75.60
10415;DHT22;5254;47.696;9.138;2022-07-06T08:24:10;22.60;75.40
10415;DHT22;5254;47.696;9.138;2022-07-06T08:26:37;22.70;75.30
10415;DHT22;5254;47.696;9.138;2022-07-06T08:29:03;22.80;75.30
10415;DHT22;5254;47.696;9.138;2022-07-06T08:31:29;22.80;75.00
10415;DHT22;5254;47.696;9.138;2022-07-06T08:33:55;22.80;74.90
10415;DHT22;5254;47.696;9.138;2022-07-06T08:36:21;22.90;74.70
10415;DHT22;5254;47.696;9.138;2022-07-06T08:38:48;22.90;74.40
10415;DHT22;5254;47.696;9.138;2022-07-06T08:41:18;22.90;74.30
10415;DHT22;5254;47.696;9.138;2022-07-06T08:43:46;23.00;74.40
10415;DHT22;5254;47.696;9.138;2022-07-06T08:46:13;23.00;74.30
10415;DHT22;5254;47.696;9.138;2022-07-06T08:48:40;23.10;74.30
10415;DHT22;5254;47.696;9.138;2022-07-06T08:51:07;23.10;74.00
10415;DHT22;5254;47.696;9.138;2022-07-06T08:53:33;23.10;73.80
10415;DHT22;5254;47.696;9.138;2022-07-06T08:56:03;23.10;73.60
10415;DHT22;5254;47.696;9.138;2022-07-06T08:58:29;23.10;73.40
10415;DHT22;5254;47.696;9.138;2022-07-06T09:00:55;23.20;73.50
10415;DHT22;5254;47.696;9.138;2022-07-06T09:03:21;23.30;73.40
10415;DHT22;5254;47.696;9.138;2022-07-06T09:05:47;23.30;73.20
10415;DHT22;5254;47.696;9.138;2022-07-06T09:08:13;23.40;73.10
10415;DHT22;5254;47.696;9.138;2022-07-06T09:10:39;23.40;72.60
10415;DHT22;5254;47.696;9.138;2022-07-06T09:13:06;23.50;72.70
10415;DHT22;5254;47.696;9.138;2022-07-06T09:15:34;23.50;72.50
10415;DHT22;5254;47.696;9.138;2022-07-06T09:18:00;23.60;72.70
10415;DHT22;5254;47.696;9.138;2022-07-06T09:20:26;23.70;72.50
10415;DHT22;5254;47.696;9.138;2022-07-06T09:22:57;23.70;72.10
10415;DHT22;5254;47.696;9.138;2022-07-06T09:25:24;23.70;71.70
10415;DHT22;5254;47.696;9.138;2022-07-06T09:27:50;23.70;71.80
10415;DHT22;5254;47.696;9.138;2022-07-06T09:30:20;23.70;71.70
10415;DHT22;5254;47.696;9.138;2022-07-06T09:32:48;23.80;71.60
10415;DHT22;5254;47.696;9.138;2022-07-06T09:35:28;23.80;71.50
10415;DHT22;5254;47.696;9.138;2022-07-06T09:40:27;24.00;71.30
10415;DHT22;5254;47.696;9.138;2022-07-06T09:43:17;24.00;71.30
10415;DHT22;5254;47.696;9.138;2022-07-06T09:45:49;24.10;71.00
10415;DHT22;5254;47.696;9.138;2022-07-06T09:48:20;24.20;71.10
10415;DHT22;5254;47.696;9.138;2022-07-06T09:50:51;24.20;70.90
10415;DHT22;5254;47.696;9.138;2022-07-06T09:53:18;24.20;70.70
10415;DHT22;5254;47.696;9.138;2022-07-06T09:55:49;24.20;70.60
10415;DHT22;5254;47.696;9.138;2022-07-06T09:58:16;24.30;70.70
10415;DHT22;5254;47.696;9.138;2022-07-06T10:00:44;24.30;70.10
10415;DHT22;5254;47.696;9.138;2022-07-06T10:03:10;24.30;69.30
10415;DHT22;5254;47.696;9.138;2022-07-06T10:05:42;24.30;69.30
10415;DHT22;5254;47.696;9.138;2022-07-06T10:08:09;24.30;69.00
10415;DHT22;5254;47.696;9.138;2022-07-06T10:10:37;24.40;68.90
10415;DHT22;5254;47.696;9.138;2022-07-06T10:13:03;24.50;68.90
10415;DHT22;5254;47.696;9.138;2022-07-06T10:15:32;24.50;68.30
10415;DHT22;5254;47.696;9.138;2022-07-06T10:18:03;24.60;68.10
10415;DHT22;5254;47.696;9.138;2022-07-06T10:20:30;24.60;67.70
10415;DHT22;5254;47.696;9.138;2022-07-06T10:22:59;24.70;67.90
10415;DHT22;5254;47.696;9.138;2022-07-06T10:25:26;24.80;67.70
10415;DHT22;5254;47.696;9.138;2022-07-06T10:27:53;24.80;67.30
10415;DHT22;5254;47.696;9.138;2022-07-06T10:30:19;24.90;67.20
10415;DHT22;5254;47.696;9.138;2022-07-06T10:32:47;24.90;66.90
10415;DHT22;5254;47.696;9.138;2022-07-06T10:35:14;25.00;66.80
10415;DHT22;5254;47.696;9.138;2022-07-06T10:37:40;25.00;66.40
10415;DHT22;5254;47.696;9.138;2022-07-06T10:40:07;25.10;66.20
10415;DHT22;5254;47.696;9.138;2022-07-06T10:43:02;25.10;66.10
10415;DHT22;5254;47.696;9.138;2022-07-06T10:50:56;25.20;65.10
10415;DHT22;5254;47.696;9.138;2022-07-06T10:53:28;25.30;64.40
10415;DHT22;5254;47.696;9.138;2022-07-06T10:55:57;25.40;64.30
10415;DHT22;5254;47.696;9.138;2022-07-06T10:58:48;25.40;63.80
10415;DHT22;5254;47.696;9.138;2022-07-06T11:01:17;25.40;62.00
10415;DHT22;5254;47.696;9.138;2022-07-06T11:03:48;25.40;62.30
10415;DHT22;5254;47.696;9.138;2022-07-06T11:06:16;25.40;61.40
10415;DHT22;5254;47.696;9.138;2022-07-06T11:19:14;25.70;59.60
10415;DHT22;5254;47.696;9.138;2022-07-06T11:21:53;25.70;59.10
10415;DHT22;5254;47.696;9.138;2022-07-06T11:24:27;25.70;58.80
10415;DHT22;5254;47.696;9.138;2022-07-06T11:26:54;25.70;58.40
10415;DHT22;5254;47.696;9.138;2022-07-06T11:29:22;25.70;57.90
10415;DHT22;5254;47.696;9.138;2022-07-06T11:31:58;25.70;57.50
10415;DHT22;5254;47.696;9.138;2022-07-06T11:34:31;25.70;57.20
10415;DHT22;5254;47.696;9.138;2022-07-06T11:37:01;25.80;56.60
10415;DHT22;5254;47.696;9.138;2022-07-06T11:39:28;25.80;55.50
10415;DHT22;5254;47.696;9.138;2022-07-06T11:41:58;25.80;54.50
10415;DHT22;5254;47.696;9.138;2022-07-06T11:44:24;25.80;54.00
10415;DHT22;5254;47.696;9.138;2022-07-06T11:46:51;25.90;53.70
10415;DHT22;5254;47.696;9.138;2022-07-06T11:49:17;26.00;53.50
10415;DHT22;5254;47.696;9.138;2022-07-06T11:51:45;25.90;52.20
10415;DHT22;5254;47.696;9.138;2022-07-06T11:54:13;25.90;51.90
10415;DHT22;5254;47.696;9.138;2022-07-06T11:56:50;26.00;52.00
10415;DHT22;5254;47.696;9.138;2022-07-06T11:59:26;26.10;51.70
10415;DHT22;5254;47.696;9.138;2022-07-06T12:04:29;26.20;51.40
10415;DHT22;5254;47.696;9.138;2022-07-06T12:07:00;26.30;51.50
10415;DHT22;5254;47.696;9.138;2022-07-06T12:09:26;26.40;51.10
10415;DHT22;5254;47.696;9.138;2022-07-06T12:11:54;26.40;50.90
10415;DHT22;5254;47.696;9.138;2022-07-06T12:14:20;26.50;50.80
10415;DHT22;5254;47.696;9.138;2022-07-06T12:16:48;26.50;50.60
10415;DHT22;5254;47.696;9.138;2022-07-06T12:19:15;26.50;50.50
10415;DHT22;5254;47.696;9.138;2022-07-06T12:21:51;26.60;50.20
10415;DHT22;5254;47.696;9.138;2022-07-06T12:24:25;26.60;50.00
10415;DHT22;5254;47.696;9.138;2022-07-06T12:26:53;26.60;49.70
10415;DHT22;5254;47.696;9.138;2022-07-06T12:29:19;26.60;49.50
10415;DHT22;5254;47.696;9.138;2022-07-06T12:31:52;26.70;49.30
10415;DHT22;5254;47.696;9.138;2022-07-06T12:34:25;26.60;48.90
10415;DHT22;5254;47.696;9.138;2022-07-06T12:36:57;26.70;49.00
10415;DHT22;5254;47.696;9.138;2022-07-06T12:39:27;26.70;49.00
10415;DHT22;5254;47.696;9.138;2022-07-06T12:41:55;26.80;49.00
10415;DHT22;5254;47.696;9.138;2022-07-06T12:44:24;26.90;49.00
10415;DHT22;5254;47.696;9.138;2022-07-06T12:47:08;26.90;48.90
10415;DHT22;5254;47.696;9.138;2022-07-06T12:49:35;27.00;48.80
10415;DHT22;5254;47.696;9.138;2022-07-06T12:52:02;27.00;48.90
10415;DHT22;5254;47.696;9.138;2022-07-06T12:54:40;27.10;48.80
10415;DHT22;5254;47.696;9.138;2022-07-06T12:57:18;27.20;48.70
10415;DHT22;5254;47.696;9.138;2022-07-06T12:59:48;27.20;48.60
10415;DHT22;5254;47.696;9.138;2022-07-06T13:02:21;27.20;48.50
10415;DHT22;5254;47.696;9.138;2022-07-06T13:04:57;27.30;48.40
10415;DHT22;5254;47.696;9.138;2022-07-06T13:07:24;27.30;48.30
10415;DHT22;5254;47.696;9.138;2022-07-06T13:09:50;27.40;48.20
10415;DHT22;5254;47.696;9.138;2022-07-06T13:12:16;27.30;47.50
10415;DHT22;5254;47.696;9.138;2022-07-06T13:14:41;27.20;47.50
10415;DHT22;5254;47.696;9.138;2022-07-06T13:17:07;27.20;47.00
10415;DHT22;5254;47.696;9.138;2022-07-06T13:19:33;27.20;47.00
10415;DHT22;5254;47.696;9.138;2022-07-06T13:21:59;27.20;47.00
10415;DHT22;5254;47.696;9.138;2022-07-06T13:24:24;27.20;47.00
10415;DHT22;5254;47.696;9.138;2022-07-06T13:26:50;27.30;47.00
10415;DHT22;5254;47.696;9.138;2022-07-06T13:29:16;27.30;47.00
10415;DHT22;5254;47.696;9.138;2022-07-06T13:31:42;27.40;46.90
10415;DHT22;5254;47.696;9.138;2022-07-06T13:34:08;27.40;46.50
10415;DHT22;5254;47.696;9.138;2022-07-06T13:36:34;27.40;46.40
10415;DHT22;5254;47.696;9.138;2022-07-06T13:39:00;27.40;46.30
10415;DHT22;5254;47.696;9.138;2022-07-06T13:41:26;27.40;46.40
10415;DHT22;5254;47.696;9.138;2022-07-06T13:43:52;27.40;46.30
10415;DHT22;5254;47.696;9.138;2022-07-06T13:46:18;27.50;46.30
10415;DHT22;5254;47.696;9.138;2022-07-06T13:48:44;27.50;46.20
10415;DHT22;5254;47.696;9.138;2022-07-06T13:51:10;27.50;46.00
10415;DHT22;5254;47.696;9.138;2022-07-06T13:53:35;27.50;45.90
10415;DHT22;5254;47.696;9.138;2022-07-06T13:56:02;27.50;45.90
10415;DHT22;5254;47.696;9.138;2022-07-06T13:58:28;27.60;45.90
10415;DHT22;5254;47.696;9.138;2022-07-06T14:00:54;27.60;45.80
10415;DHT22;5254;47.696;9.138;2022-07-06T14:03:20;27.60;45.70
10415;DHT22;5254;47.696;9.138;2022-07-06T14:05:45;27.60;45.50
10415;DHT22;5254;47.696;9.138;2022-07-06T14:08:12;27.50;45.40
10415;DHT22;5254;47.696;9.138;2022-07-06T14:10:38;27.50;45.40
10415;DHT22;5254;47.696;9.138;2022-07-06T14:13:04;27.50;45.30
10415;DHT22;5254;47.696;9.138;2022-07-06T14:15:29;27.50;45.30
10415;DHT22;5254;47.696;9.138;2022-07-06T14:17:55;27.50;45.30
10415;DHT22;5254;47.696;9.138;2022-07-06T14:20:21;27.50;45.10
10415;DHT22;5254;47.696;9.138;2022-07-06T14:22:46;27.50;45.00
10415;DHT22;5254;47.696;9.138;2022-07-06T14:25:12;27.50;45.00
10415;DHT22;5254;47.696;9.138;2022-07-06T14:27:38;27.50;45.00
10415;DHT22;5254;47.696;9.138;2022-07-06T14:30:06;27.60;45.00
10415;DHT22;5254;47.696;9.138;2022-07-06T14:32:32;27.60;44.90
10415;DHT22;5254;47.696;9.138;2022-07-06T14:34:57;27.50;44.60
10415;DHT22;5254;47.696;9.138;2022-07-06T14:37:23;27.50;44.60
10415;DHT22;5254;47.696;9.138;2022-07-06T14:39:49;27.40;44.40
10415;DHT22;5254;47.696;9.138;2022-07-06T14:42:15;27.30;44.20
10415;DHT22;5254;47.696;9.138;2022-07-06T14:44:41;27.30;44.00
10415;DHT22;5254;47.696;9.138;2022-07-06T14:47:07;27.30;43.90
10415;DHT22;5254;47.696;9.138;2022-07-06T14:49:32;27.20;43.80
10415;DHT22;5254;47.696;9.138;2022-07-06T14:51:58;27.10;43.70
10415;DHT22;5254;47.696;9.138;2022-07-06T14:54:25;27.10;43.80
10415;DHT22;5254;47.696;9.138;2022-07-06T14:56:51;27.10;43.80
10415;DHT22;5254;47.696;9.138;2022-07-06T14:59:16;27.20;43.90
10415;DHT22;5254;47.696;9.138;2022-07-06T15:01:42;27.20;44.00
10415;DHT22;5254;47.696;9.138;2022-07-06T15:04:10;27.30;44.00
10415;DHT22;5254;47.696;9.138;2022-07-06T15:06:36;27.40;44.00
10415;DHT22;5254;47.696;9.138;2022-07-06T15:09:02;27.40;44.00
10415;DHT22;5254;47.696;9.138;2022-07-06T15:11:30;27.40;43.70
10415;DHT22;5254;47.696;9.138;2022-07-06T15:13:56;27.40;43.70
10415;DHT22;5254;47.696;9.138;2022-07-06T15:16:22;27.50;43.70
10415;DHT22;5254;47.696;9.138;2022-07-06T15:18:50;27.50;43.60
10415;DHT22;5254;47.696;9.138;2022-07-06T15:21:15;27.40;43.50
10415;DHT22;5254;47.696;9.138;2022-07-06T15:23:41;27.40;43.50
10415;DHT22;5254;47.696;9.138;2022-07-06T15:26:07;27.40;43.50
10415;DHT22;5254;47.696;9.138;2022-07-06T15:28:33;27.40;43.60
10415;DHT22;5254;47.696;9.138;2022-07-06T15:30:59;27.50;43.70
10415;DHT22;5254;47.696;9.138;2022-07-06T15:33:25;27.50;43.60
10415;DHT22;5254;47.696;9.138;2022-07-06T15:35:51;27.50;43.50
10415;DHT22;5254;47.696;9.138;2022-07-06T15:38:17;27.50;43.50
10415;DHT22;5254;47.696;9.138;2022-07-06T15:40:43;27.50;43.40
10415;DHT22;5254;47.696;9.138;2022-07-06T15:43:15;27.50;43.40
10415;DHT22;5254;47.696;9.138;2022-07-06T15:45:41;27.40;43.40
10415;DHT22;5254;47.696;9.138;2022-07-06T15:48:07;27.40;43.40
10415;DHT22;5254;47.696;9.138;2022-07-06T15:50:33;27.30;43.40
10415;DHT22;5254;47.696;9.138;2022-07-06T15:53:01;27.30;43.40
10415;DHT22;5254;47.696;9.138;2022-07-06T15:55:27;27.30;43.60
10415;DHT22;5254;47.696;9.138;2022-07-06T15:57:53;27.30;43.20
10415;DHT22;5254;47.696;9.138;2022-07-06T16:00:19;27.30;43.20
10415;DHT22;5254;47.696;9.138;2022-07-06T16:02:44;27.40;43.30
10415;DHT22;5254;47.696;9.138;2022-07-06T16:05:10;27.40;43.30
10415;DHT22;5254;47.696;9.138;2022-07-06T16:07:36;27.40;43.30